Time;durP1;ratioP1;P1;durP2;ratioP2;P2;SDS_P1;SDS_P2;PMS_P1;PMS_P2;Temp;Humidity;BMP_temperature;BMP_pressure;BME280_temperature;BME280_humidity;BME280_pressure;Samples;Min_cycle;Max_cycle;Signal;HPM_P1;HPM_P2
2021/06/20 00:01:42;;;;;;;0.00;0.00;;;23.40;73.80;;;;;;5053692;28;20237;-77
2021/06/20 00:04:07;;;;;;;0.10;0.10;;;23.50;73.90;;;;;;5053756;28;20123;-76
2021/06/20 00:06:35;;;;;;;0.00;0.00;;;23.60;73.40;;;;;;5053795;28;20094;-77
2021/06/20 00:09:12;;;;;;;0.25;0.25;;;23.50;73.40;;;;;;5071609;28;20020;-77
2021/06/20 00:11:40;;;;;;;0.08;0.08;;;23.30;74.20;;;;;;5071626;28;20537;-76
2021/06/20 00:14:07;;;;;;;0.10;0.10;;;23.20;74.60;;;;;;5037131;28;20017;-76
2021/06/20 00:16:35;;;;;;;0.20;0.20;;;23.20;74.70;;;;;;5037172;28;20027;-76
2021/06/20 00:19:02;;;;;;;0.17;0.17;;;23.10;74.80;;;;;;5036894;28;20020;-76
2021/06/20 00:21:28;;;;;;;4.20;1.77;;;23.10;74.80;;;;;;5053659;28;20028;-77
2021/06/20 00:23:54;;;;;;;0.00;0.00;;;23.10;74.30;;;;;;5071662;28;20021;-77
2021/06/20 00:26:20;;;;;;;0.10;0.10;;;23.10;74.10;;;;;;5071512;28;20016;-76
2021/06/20 00:28:46;;;;;;;1.77;1.27;;;23.10;74.00;;;;;;5071517;28;20020;-76
2021/06/20 00:31:13;;;;;;;1.88;0.55;;;23.20;73.40;;;;;;5053177;28;20134;-77
2021/06/20 00:33:40;;;;;;;0.00;0.00;;;23.20;73.50;;;;;;5053587;28;20024;-76
2021/06/20 00:36:07;;;;;;;6.60;1.65;;;23.10;73.50;;;;;;5053442;28;20093;-77
2021/06/20 00:38:32;;;;;;;0.50;0.50;;;23.20;73.50;;;;;;5036760;28;20055;-77
2021/06/20 00:40:58;;;;;;;0.00;0.00;;;23.30;73.50;;;;;;5071435;28;20488;-76
2021/06/20 00:43:24;;;;;;;0.00;0.00;;;23.30;73.20;;;;;;5055392;28;20096;-77
2021/06/20 00:45:50;;;;;;;0.05;0.05;;;23.30;72.80;;;;;;5057436;28;20365;-77
2021/06/20 00:48:16;;;;;;;0.40;0.40;;;23.30;72.80;;;;;;5056939;28;20081;-76
2021/06/20 00:50:41;;;;;;;0.43;0.43;;;23.30;72.80;;;;;;5057260;28;20036;-76
2021/06/20 00:53:09;;;;;;;0.10;0.10;;;23.10;73.30;;;;;;5057020;28;20064;-76
2021/06/20 00:55:37;;;;;;;0.80;0.50;;;23.00;74.20;;;;;;5057125;28;20400;-76
2021/06/20 00:58:07;;;;;;;1.27;0.63;;;23.00;74.30;;;;;;5074787;28;20016;-76
2021/06/20 01:00:35;;;;;;;0.75;0.75;;;23.00;74.00;;;;;;5056953;28;20467;-76
2021/06/20 01:03:05;;;;;;;0.10;0.10;;;22.90;74.20;;;;;;5074888;28;20476;-76
2021/06/20 01:05:32;;;;;;;0.10;0.10;;;22.90;74.30;;;;;;5056848;28;20553;-76
2021/06/20 01:07:58;;;;;;;2.90;1.95;;;23.00;74.40;;;;;;5074675;28;20029;-77
2021/06/20 01:10:27;;;;;;;0.30;0.30;;;22.80;74.90;;;;;;5056925;28;20027;-76
2021/06/20 01:12:53;;;;;;;0.38;0.38;;;22.80;74.80;;;;;;5056829;28;20077;-77
2021/06/20 01:15:19;;;;;;;0.10;0.10;;;22.90;75.30;;;;;;5056587;28;20127;-77
2021/06/20 01:17:45;;;;;;;0.00;0.00;;;22.80;75.00;;;;;;5056677;28;20039;-77
2021/06/20 01:20:16;;;;;;;0.20;0.20;;;22.80;75.50;;;;;;5074445;28;20391;-76
2021/06/20 01:22:44;;;;;;;0.10;0.10;;;23.00;74.80;;;;;;5056819;28;20110;-76
2021/06/20 01:25:13;;;;;;;0.05;0.05;;;23.20;74.60;;;;;;5056653;28;20017;-76
2021/06/20 01:27:44;;;;;;;0.30;0.30;;;23.30;73.70;;;;;;5074424;28;20108;-75
2021/06/20 01:30:16;;;;;;;0.30;0.30;;;23.30;73.40;;;;;;5056324;28;20024;-75
2021/06/20 01:32:42;;;;;;;0.10;0.10;;;23.20;73.90;;;;;;5074365;28;20495;-75
2021/06/20 01:35:14;;;;;;;0.28;0.28;;;23.10;74.00;;;;;;5039686;28;20025;-76
2021/06/20 01:37:40;;;;;;;0.03;0.03;;;22.90;75.00;;;;;;5074226;28;20090;-76
2021/06/20 01:40:08;;;;;;;0.20;0.20;;;22.70;75.80;;;;;;5039471;28;20033;-76
2021/06/20 01:42:34;;;;;;;2.80;2.00;;;22.80;76.20;;;;;;5056084;28;20078;-76
2021/06/20 01:45:00;;;;;;;0.40;0.40;;;23.00;75.60;;;;;;5074293;28;20108;-75
2021/06/20 01:47:27;;;;;;;0.10;0.10;;;22.90;75.40;;;;;;5056030;28;20107;-76
2021/06/20 01:49:55;;;;;;;0.00;0.00;;;22.90;75.70;;;;;;5056275;28;20027;-77
2021/06/20 01:52:22;;;;;;;0.10;0.10;;;22.90;75.50;;;;;;5055987;28;20096;-76
2021/06/20 01:54:51;;;;;;;0.40;0.40;;;23.00;75.50;;;;;;5073929;28;20052;-76
2021/06/20 01:57:21;;;;;;;0.03;0.03;;;23.00;75.60;;;;;;5055799;28;20094;-76
2021/06/20 01:59:47;;;;;;;0.10;0.10;;;23.10;74.90;;;;;;5073850;28;20031;-77
2021/06/20 02:02:13;;;;;;;0.10;0.10;;;23.20;74.20;;;;;;5073658;28;20032;-76
2021/06/20 02:04:39;;;;;;;3.15;1.17;;;23.20;74.40;;;;;;5073900;28;20054;-76
2021/06/20 02:07:08;;;;;;;1.17;1.08;;;23.30;74.70;;;;;;5073687;28;20025;-76
2021/06/20 02:09:33;;;;;;;0.03;0.03;;;23.20;74.70;;;;;;5055641;28;20484;-77
2021/06/20 02:11:59;;;;;;;0.10;0.10;;;23.30;74.90;;;;;;5073642;28;20028;-76
2021/06/20 02:14:25;;;;;;;0.32;0.32;;;23.20;75.20;;;;;;5055790;28;20044;-76
2021/06/20 02:16:51;;;;;;;0.00;0.00;;;23.10;75.70;;;;;;5055668;28;20392;-77
2021/06/20 02:19:16;;;;;;;0.10;0.10;;;23.20;75.60;;;;;;5055355;28;20029;-77
2021/06/20 02:21:42;;;;;;;0.00;0.00;;;23.20;75.50;;;;;;5073252;28;20016;-77
2021/06/20 02:24:08;;;;;;;0.10;0.10;;;23.20;75.70;;;;;;5055453;28;20384;-77
2021/06/20 02:26:34;;;;;;;0.17;0.17;;;23.20;75.10;;;;;;5055358;28;20078;-77
2021/06/20 02:29:00;;;;;;;1.17;0.98;;;23.00;75.80;;;;;;5073300;28;20021;-77
2021/06/20 02:31:25;;;;;;;0.22;0.22;;;22.90;76.70;;;;;;5072938;28;20024;-76
2021/06/20 02:33:51;;;;;;;0.05;0.05;;;22.80;77.60;;;;;;5055434;28;20024;-76
2021/06/20 02:36:17;;;;;;;0.20;0.20;;;22.70;78.30;;;;;;5073137;28;20107;-77
2021/06/20 02:38:43;;;;;;;0.80;0.77;;;22.80;78.30;;;;;;5055068;28;20108;-77
2021/06/20 02:41:08;;;;;;;0.10;0.10;;;22.80;78.40;;;;;;5072896;28;20074;-77
2021/06/20 02:43:34;;;;;;;3.95;1.17;;;22.80;78.70;;;;;;5073007;28;20031;-76
2021/06/20 02:46:00;;;;;;;0.32;0.32;;;22.80;78.70;;;;;;5055014;28;20383;-77
2021/06/20 02:48:25;;;;;;;0.95;0.77;;;22.60;79.50;;;;;;5072638;28;20032;-76
2021/06/20 02:50:51;;;;;;;0.47;0.30;;;22.60;79.70;;;;;;5038339;28;20486;-76
2021/06/20 02:53:17;;;;;;;0.20;0.20;;;22.50;80.20;;;;;;5054805;28;20024;-75
2021/06/20 02:55:44;;;;;;;0.32;0.32;;;22.20;81.60;;;;;;5054812;28;20028;-77
2021/06/20 02:58:11;;;;;;;0.28;0.25;;;22.30;81.50;;;;;;5072706;28;20103;-77
2021/06/20 03:00:37;;;;;;;0.40;0.30;;;22.30;81.50;;;;;;5072387;28;21745;-77
2021/06/20 03:03:03;;;;;;;1.70;1.48;;;22.30;82.10;;;;;;5072605;28;20521;-76
2021/06/20 03:05:29;;;;;;;2.15;1.38;;;22.00;83.00;;;;;;5037560;28;20024;-77
2021/06/20 03:07:54;;;;;;;0.43;0.17;;;21.80;84.10;;;;;;5072365;28;20404;-76
2021/06/20 03:10:20;;;;;;;0.55;0.55;;;21.70;84.30;;;;;;5054421;28;20092;-76
2021/06/20 03:12:46;;;;;;;0.20;0.20;;;21.80;84.10;;;;;;5054566;28;20028;-76
2021/06/20 03:15:12;;;;;;;0.68;0.50;;;21.90;83.70;;;;;;5054604;28;20027;-76
2021/06/20 03:17:38;;;;;;;0.10;0.10;;;21.90;83.50;;;;;;5072419;28;20480;-76
2021/06/20 03:20:06;;;;;;;0.63;0.63;;;22.10;83.10;;;;;;5072169;28;20024;-76
2021/06/20 03:22:31;;;;;;;0.52;0.52;;;22.10;82.90;;;;;;5054302;28;20028;-76
2021/06/20 03:24:57;;;;;;;0.10;0.10;;;22.10;83.00;;;;;;5054445;28;20028;-76
2021/06/20 03:27:23;;;;;;;6.03;2.05;;;22.10;82.70;;;;;;5072450;28;20464;-76
2021/06/20 03:29:49;;;;;;;0.20;0.20;;;22.10;82.80;;;;;;5072037;28;20418;-76
2021/06/20 03:32:17;;;;;;;0.10;0.10;;;21.90;83.50;;;;;;5054329;28;20392;-76
2021/06/20 03:34:43;;;;;;;0.20;0.20;;;21.90;83.80;;;;;;5072211;28;20052;-77
2021/06/20 03:37:09;;;;;;;3.42;2.45;;;22.00;83.40;;;;;;5072106;28;20047;-76
2021/06/20 03:39:35;;;;;;;1.00;0.60;;;22.00;83.20;;;;;;5054022;28;20036;-76
2021/06/20 03:42:02;;;;;;;3.90;2.97;;;21.90;83.20;;;;;;5053918;28;20048;-76
2021/06/20 03:44:27;;;;;;;1.50;1.40;;;21.80;83.80;;;;;;5072116;28;20443;-77
2021/06/20 03:46:53;;;;;;;0.00;0.00;;;21.80;84.50;;;;;;5072053;28;20032;-77
2021/06/20 03:49:19;;;;;;;0.00;0.00;;;21.90;84.10;;;;;;5071945;28;20017;-76
2021/06/20 03:51:45;;;;;;;0.95;0.88;;;22.10;83.40;;;;;;5037206;28;20016;-77
2021/06/20 03:54:11;;;;;;;0.00;0.00;;;22.30;82.50;;;;;;5053967;28;20058;-76
2021/06/20 03:56:36;;;;;;;0.32;0.32;;;22.40;81.90;;;;;;5053705;28;20526;-76
2021/06/20 03:59:02;;;;;;;0.00;0.00;;;22.50;81.10;;;;;;5071842;28;20020;-77
2021/06/20 04:01:28;;;;;;;0.00;0.00;;;22.50;80.80;;;;;;5053723;28;20032;-77
2021/06/20 04:03:54;;;;;;;0.10;0.10;;;22.60;80.20;;;;;;5071792;28;20096;-76
2021/06/20 04:06:20;;;;;;;0.10;0.10;;;22.70;80.40;;;;;;5053921;28;20028;-77
2021/06/20 04:08:45;;;;;;;0.63;0.17;;;22.60;80.10;;;;;;5053789;28;20020;-76
2021/06/20 04:11:11;;;;;;;0.88;0.88;;;22.50;80.60;;;;;;5071539;28;20051;-76
2021/06/20 04:13:37;;;;;;;1.40;1.30;;;22.50;80.70;;;;;;5071744;28;20099;-77
2021/06/20 04:16:03;;;;;;;1.65;0.28;;;22.40;80.50;;;;;;5054053;28;20029;-76
2021/06/20 04:18:29;;;;;;;0.15;0.15;;;22.20;81.20;;;;;;5055686;28;20028;-76
2021/06/20 04:20:54;;;;;;;1.55;1.40;;;22.30;81.10;;;;;;5057748;28;20029;-76
2021/06/20 04:23:20;;;;;;;3.15;2.28;;;22.40;81.00;;;;;;5075680;28;20074;-76
2021/06/20 04:25:46;;;;;;;0.20;0.20;;;22.50;80.20;;;;;;5057702;28;20384;-77
2021/06/20 04:28:13;;;;;;;1.55;1.27;;;22.60;79.90;;;;;;5057530;28;20029;-76
2021/06/20 04:30:39;;;;;;;0.75;0.52;;;22.70;80.20;;;;;;5040766;28;20032;-76
2021/06/20 04:33:04;;;;;;;0.00;0.00;;;22.80;79.90;;;;;;5057537;28;20488;-76
2021/06/20 04:35:30;;;;;;;0.45;0.45;;;22.80;79.80;;;;;;5057465;28;20035;-77
2021/06/20 04:37:56;;;;;;;0.10;0.10;;;22.90;79.80;;;;;;5057227;28;20519;-76
2021/06/20 04:40:23;;;;;;;0.00;0.00;;;23.00;79.90;;;;;;5040811;28;20036;-76
2021/06/20 04:45:45;;;;;;;0.03;0.03;;;23.20;79.00;;;;;;5021338;28;20378;-76
2021/06/20 04:48:11;;;;;;;0.00;0.00;;;23.20;79.20;;;;;;5074957;28;20023;-75
2021/06/20 04:50:37;;;;;;;0.10;0.10;;;23.20;79.50;;;;;;5057192;28;20098;-77
2021/06/20 04:53:02;;;;;;;0.43;0.38;;;23.20;79.80;;;;;;5057080;28;20157;-76
2021/06/20 04:55:28;;;;;;;0.28;0.28;;;23.20;79.90;;;;;;5075060;28;20029;-76
2021/06/20 04:57:54;;;;;;;0.10;0.10;;;23.10;79.90;;;;;;5040281;28;20025;-76
2021/06/20 05:00:19;;;;;;;0.00;0.00;;;23.20;80.70;;;;;;5056765;28;20020;-76
2021/06/20 05:02:46;;;;;;;7.95;1.73;;;23.40;80.70;;;;;;5040206;28;20492;-77
2021/06/20 05:05:12;;;;;;;3.35;1.40;;;23.50;79.30;;;;;;5040328;28;20052;-76
2021/06/20 05:07:38;;;;;;;1.75;1.40;;;23.40;78.80;;;;;;5056784;28;20029;-77
2021/06/20 05:10:05;;;;;;;0.00;0.00;;;23.40;78.40;;;;;;5040275;28;20081;-76
2021/06/20 05:12:31;;;;;;;0.10;0.10;;;23.50;78.30;;;;;;5040074;28;20028;-77
2021/06/20 05:14:57;;;;;;;0.00;0.00;;;23.80;77.50;;;;;;5056920;28;20162;-77
2021/06/20 05:17:22;;;;;;;0.28;0.28;;;24.00;76.70;;;;;;5039813;28;20037;-76
2021/06/20 05:19:48;;;;;;;0.03;0.03;;;24.20;76.10;;;;;;5074479;28;20436;-77
2021/06/20 05:22:14;;;;;;;0.03;0.03;;;24.20;76.20;;;;;;5056638;28;20025;-76
2021/06/20 05:24:41;;;;;;;0.00;0.00;;;24.40;75.80;;;;;;5056729;28;20027;-76
2021/06/20 05:27:08;;;;;;;2.45;2.25;;;24.50;75.60;;;;;;5074472;28;20024;-76
2021/06/20 05:29:34;;;;;;;0.15;0.15;;;24.50;76.00;;;;;;5055780;28;20024;-77
2021/06/20 05:32:00;;;;;;;2.55;1.48;;;24.50;76.60;;;;;;5056426;28;20090;-77
2021/06/20 05:34:26;;;;;;;0.57;0.40;;;24.30;76.60;;;;;;5074299;28;20021;-76
2021/06/20 05:36:52;;;;;;;5.22;2.15;;;24.20;77.50;;;;;;5039749;28;20039;-77
2021/06/20 05:39:17;;;;;;;1.55;0.90;;;24.10;77.70;;;;;;5074056;28;20024;-77
2021/06/20 05:41:43;;;;;;;0.70;0.68;;;24.00;77.90;;;;;;5056323;28;20161;-77
2021/06/20 05:44:09;;;;;;;6.40;1.55;;;24.00;78.10;;;;;;5039555;28;20468;-76
2021/06/20 05:46:35;;;;;;;1.33;0.90;;;24.00;79.00;;;;;;5074103;28;20051;-76
2021/06/20 05:49:01;;;;;;;12.75;2.15;;;24.10;79.30;;;;;;5073865;28;20016;-76
2021/06/20 05:51:27;;;;;;;0.00;0.00;;;24.20;79.00;;;;;;5056249;28;20544;-76
2021/06/20 05:53:52;;;;;;;0.22;0.22;;;24.30;79.10;;;;;;5056085;28;20037;-76
2021/06/20 05:56:19;;;;;;;1.27;1.13;;;24.40;78.80;;;;;;5055987;28;20025;-77
2021/06/20 05:58:45;;;;;;;4.63;2.38;;;24.50;77.60;;;;;;5055739;28;20027;-76
2021/06/20 06:01:10;;;;;;;1.00;0.95;;;24.40;77.00;;;;;;5055497;28;20029;-76
2021/06/20 06:03:36;;;;;;;3.97;2.30;;;24.50;76.60;;;;;;5073790;28;20017;-76
2021/06/20 06:06:03;;;;;;;4.78;3.47;;;24.40;76.90;;;;;;5055924;28;20024;-76
2021/06/20 06:08:29;;;;;;;0.17;0.15;;;24.40;77.20;;;;;;5073724;28;20101;-76
2021/06/20 06:10:55;;;;;;;4.57;2.10;;;24.50;77.30;;;;;;5055705;28;20038;-76
2021/06/20 06:13:20;;;;;;;2.25;0.90;;;24.50;76.90;;;;;;5073497;28;20028;-75
2021/06/20 06:15:46;;;;;;;1.95;1.40;;;24.60;76.30;;;;;;5073554;28;20439;-77
2021/06/20 06:18:12;;;;;;;10.75;2.65;;;24.70;76.10;;;;;;5055400;28;20058;-76
2021/06/20 06:20:38;;;;;;;3.00;1.95;;;24.70;75.90;;;;;;5055416;28;20060;-76
2021/06/20 06:23:04;;;;;;;8.88;2.25;;;24.70;75.90;;;;;;5073467;28;20025;-77
2021/06/20 06:25:30;;;;;;;2.28;0.82;;;24.80;75.60;;;;;;5055498;28;20030;-77
2021/06/20 06:27:56;;;;;;;7.75;2.45;;;25.00;75.50;;;;;;5038523;28;20028;-76
2021/06/20 06:30:22;;;;;;;6.40;1.90;;;25.00;75.10;;;;;;5055338;28;20036;-76
2021/06/20 06:32:48;;;;;;;1.85;0.80;;;25.00;75.40;;;;;;5073198;28;20020;-77
2021/06/20 06:35:15;;;;;;;4.45;2.05;;;25.10;75.00;;;;;;5073366;28;20028;-76
2021/06/20 06:37:41;;;;;;;2.47;1.92;;;25.10;75.00;;;;;;5072970;28;20353;-76
2021/06/20 06:40:08;;;;;;;13.48;1.38;;;25.00;75.00;;;;;;5054339;28;20306;-76
2021/06/20 06:42:35;;;;;;;5.85;2.40;;;25.00;75.30;;;;;;5054860;28;20029;-75
2021/06/20 06:45:00;;;;;;;0.10;0.10;;;25.10;74.80;;;;;;5055199;28;20503;-77
2021/06/20 06:47:28;;;;;;;3.85;3.60;;;25.10;74.50;;;;;;5072706;28;20093;-77
2021/06/20 06:49:53;;;;;;;13.07;4.00;;;25.20;74.40;;;;;;5055034;28;20032;-75
2021/06/20 06:52:19;;;;;;;1.65;1.08;;;25.10;75.40;;;;;;5054866;28;20024;-76
2021/06/20 06:54:51;;;;;;;0.05;0.05;;;24.90;75.90;;;;;;5054843;28;20048;-77
2021/06/20 06:57:21;;;;;;;61.17;10.15;;;24.80;76.40;;;;;;5072684;28;20031;-76
2021/06/20 06:59:48;;;;;;;6.03;1.17;;;24.90;75.70;;;;;;5038124;28;20035;-76
2021/06/20 07:02:15;;;;;;;0.00;0.00;;;25.10;74.90;;;;;;5072419;28;20032;-76
2021/06/20 07:04:40;;;;;;;1.77;1.10;;;25.20;74.30;;;;;;5072675;28;20526;-76
2021/06/20 07:07:06;;;;;;;1.55;0.90;;;25.30;73.40;;;;;;5072533;28;20024;-76
2021/06/20 07:09:32;;;;;;;5.43;2.75;;;25.20;73.60;;;;;;5072374;28;20025;-76
2021/06/20 07:11:58;;;;;;;4.85;4.50;;;25.10;72.50;;;;;;5072307;28;20024;-77
2021/06/20 07:14:24;;;;;;;3.25;1.85;;;25.00;73.10;;;;;;5054662;28;20029;-77
2021/06/20 07:16:50;;;;;;;0.10;0.10;;;25.00;73.50;;;;;;5072345;28;20082;-77
2021/06/20 07:19:15;;;;;;;2.10;0.60;;;25.10;73.60;;;;;;5054433;28;20021;-77
2021/06/20 07:21:41;;;;;;;0.95;0.82;;;25.10;73.20;;;;;;5072212;28;20434;-76
2021/06/20 07:24:07;;;;;;;0.00;0.00;;;25.10;73.20;;;;;;5054494;28;20028;-77
2021/06/20 07:26:33;;;;;;;1.10;0.85;;;25.10;74.00;;;;;;5054288;28;20025;-77
2021/06/20 07:28:59;;;;;;;0.00;0.00;;;25.30;73.20;;;;;;5072061;28;20036;-76
2021/06/20 07:31:25;;;;;;;3.88;2.03;;;25.30;72.80;;;;;;5037332;28;20033;-76
2021/06/20 07:33:51;;;;;;;1.27;1.17;;;25.20;71.70;;;;;;5053990;28;20484;-76
2021/06/20 07:36:17;;;;;;;0.63;0.63;;;25.20;71.00;;;;;;5054196;28;20447;-76
2021/06/20 07:38:46;;;;;;;0.08;0.08;;;25.40;71.30;;;;;;5054085;28;20024;-76
2021/06/20 07:41:12;;;;;;;13.18;2.75;;;25.70;71.20;;;;;;5037397;28;20476;-76
2021/06/20 07:43:38;;;;;;;0.75;0.75;;;25.50;69.50;;;;;;5054225;28;20032;-76
2021/06/20 07:46:04;;;;;;;0.30;0.20;;;25.20;70.60;;;;;;5053928;28;20116;-76
2021/06/20 07:48:31;;;;;;;0.00;0.00;;;25.50;70.50;;;;;;5037359;28;20275;-76
2021/06/20 07:50:57;;;;;;;14.05;2.80;;;25.70;70.20;;;;;;5054133;28;20021;-77
2021/06/20 07:53:23;;;;;;;16.20;3.00;;;25.80;70.00;;;;;;5071733;28;20488;-77
2021/06/20 07:55:49;;;;;;;12.80;3.75;;;25.50;70.70;;;;;;5071891;28;20025;-76
2021/06/20 07:58:15;;;;;;;18.77;5.72;;;25.50;71.10;;;;;;5053605;28;20028;-76
2021/06/20 08:00:41;;;;;;;0.00;0.00;;;25.40;71.00;;;;;;5053636;28;20032;-76
2021/06/20 08:03:08;;;;;;;1.42;0.45;;;25.50;71.20;;;;;;5053831;28;20031;-77
2021/06/20 08:05:33;;;;;;;0.03;0.03;;;25.70;70.70;;;;;;5053972;28;20427;-77
2021/06/20 08:07:59;;;;;;;0.52;0.52;;;26.00;70.50;;;;;;5037221;28;20065;-76
2021/06/20 08:10:25;;;;;;;5.03;4.55;;;26.00;69.80;;;;;;5053713;28;20029;-77
2021/06/20 08:12:51;;;;;;;0.35;0.22;;;26.10;69.20;;;;;;5053727;28;20488;-77
2021/06/20 08:15:17;;;;;;;0.05;0.05;;;26.00;68.40;;;;;;5071540;28;20074;-77
2021/06/20 08:17:43;;;;;;;0.00;0.00;;;26.20;69.10;;;;;;5071606;28;20032;-77
2021/06/20 08:20:11;;;;;;;0.32;0.30;;;26.40;67.30;;;;;;5053400;28;20029;-77
2021/06/20 08:22:38;;;;;;;0.45;0.30;;;26.20;68.70;;;;;;5071602;28;20476;-77
2021/06/20 08:25:09;;;;;;;0.25;0.08;;;25.90;69.50;;;;;;5053900;28;20383;-77
2021/06/20 08:27:36;;;;;;;3.08;0.95;;;25.90;69.00;;;;;;5071868;28;20020;-76
2021/06/20 08:30:04;;;;;;;0.00;0.00;;;26.50;67.90;;;;;;5071258;28;20056;-76
2021/06/20 08:32:30;;;;;;;0.00;0.00;;;26.90;66.20;;;;;;5071490;28;20028;-77
2021/06/20 08:34:57;;;;;;;0.30;0.30;;;27.30;66.70;;;;;;5053504;28;20029;-77
2021/06/20 08:37:23;;;;;;;13.20;2.15;;;27.50;64.20;;;;;;5053292;28;20077;-76
2021/06/20 08:39:49;;;;;;;0.45;0.45;;;27.50;63.70;;;;;;5053475;28;20025;-77
2021/06/20 08:42:15;;;;;;;10.50;3.10;;;27.50;63.90;;;;;;5071356;28;20051;-77
2021/06/20 08:44:41;;;;;;;13.13;6.55;;;27.40;63.20;;;;;;5071271;28;20024;-77
2021/06/20 08:47:07;;;;;;;0.10;0.10;;;27.40;63.70;;;;;;5071466;28;20020;-76
2021/06/20 08:49:34;;;;;;;1.30;0.75;;;27.70;63.30;;;;;;5071314;28;20021;-77
2021/06/20 08:52:01;;;;;;;20.27;3.00;;;28.00;62.90;;;;;;5071263;28;20416;-77
2021/06/20 08:54:27;;;;;;;1.75;0.57;;;27.90;62.40;;;;;;5053368;28;20056;-77
2021/06/20 08:56:53;;;;;;;8.27;3.92;;;27.80;64.30;;;;;;5071159;28;20021;-77
2021/06/20 08:59:21;;;;;;;0.00;0.00;;;28.10;62.50;;;;;;5036432;28;20074;-77
2021/06/20 09:01:47;;;;;;;0.40;0.30;;;28.20;60.70;;;;;;5071064;28;20032;-76
2021/06/20 09:04:28;;;;;;;1.02;0.98;;;28.60;60.80;;;;;;5054723;28;20021;-77
2021/06/20 09:06:53;;;;;;;0.20;0.20;;;28.70;60.30;;;;;;5057145;28;20025;-77
2021/06/20 09:09:36;;;;;;;0.10;0.10;;;28.90;59.90;;;;;;5074789;28;20411;-76
2021/06/20 09:12:14;;;;;;;7.22;4.03;;;29.20;59.10;;;;;;5056836;28;20024;-77
2021/06/20 09:14:47;;;;;;;0.15;0.05;;;29.30;58.70;;;;;;5040317;28;20028;-77
2021/06/20 09:17:24;;;;;;;0.00;0.00;;;29.50;57.20;;;;;;5074582;28;20029;-77
2021/06/20 09:19:56;;;;;;;0.28;0.28;;;29.70;56.80;;;;;;5074506;28;20025;-76
2021/06/20 09:22:21;;;;;;;0.00;0.00;;;29.30;56.70;;;;;;5074670;28;20025;-77
2021/06/20 09:24:58;;;;;;;1.90;1.02;;;29.30;58.00;;;;;;5056678;28;20048;-76
2021/06/20 09:27:23;;;;;;;1.60;0.50;;;29.60;56.80;;;;;;5074454;28;20044;-77
2021/06/20 09:29:49;;;;;;;2.60;0.63;;;29.90;56.30;;;;;;5074223;28;20055;-77
2021/06/20 09:32:15;;;;;;;0.00;0.00;;;29.60;56.80;;;;;;5039649;28;20028;-77
2021/06/20 09:34:42;;;;;;;1.08;0.98;;;29.30;58.20;;;;;;5056634;28;20029;-77
2021/06/20 09:37:09;;;;;;;0.05;0.05;;;29.20;58.20;;;;;;5056406;28;20082;-76
2021/06/20 09:39:34;;;;;;;0.10;0.10;;;29.40;58.50;;;;;;5056066;28;20029;-77
2021/06/20 09:42:11;;;;;;;0.80;0.52;;;29.50;57.70;;;;;;5056186;28;20086;-77
2021/06/20 09:44:41;;;;;;;0.00;0.00;;;29.60;57.20;;;;;;5039627;28;20116;-77
2021/06/20 09:47:18;;;;;;;0.88;0.73;;;30.00;56.70;;;;;;5074020;28;20025;-77
2021/06/20 09:49:49;;;;;;;0.10;0.10;;;30.00;56.80;;;;;;5056226;28;20024;-77
2021/06/20 09:52:28;;;;;;;;;;;30.10;56.90;;;;;;5074281;28;20031;-77
2021/06/20 09:54:56;;;;;;;1.23;0.77;;;30.30;56.00;;;;;;5056059;28;19912;-77
2021/06/20 09:57:22;;;;;;;0.43;0.28;;;30.50;55.80;;;;;;5073791;28;20027;-77
2021/06/20 09:59:58;;;;;;;0.00;0.00;;;30.60;54.70;;;;;;5074015;28;20082;-77
2021/06/20 10:02:29;;;;;;;1.40;1.17;;;30.90;54.00;;;;;;5073735;28;20033;-77
2021/06/20 10:04:55;;;;;;;0.00;0.00;;;30.60;54.20;;;;;;5055993;28;20078;-77
2021/06/20 10:07:25;;;;;;;6.82;3.05;;;30.80;54.60;;;;;;5038939;28;20089;-77
2021/06/20 10:09:52;;;;;;;7.90;0.80;;;31.10;54.00;;;;;;5039162;28;20484;-77
2021/06/20 10:12:18;;;;;;;0.45;0.30;;;31.10;52.90;;;;;;5038971;28;20044;-77
2021/06/20 10:14:47;;;;;;;1.00;0.47;;;31.20;53.00;;;;;;5055320;28;20474;-77
2021/06/20 10:17:19;;;;;;;2.72;2.20;;;30.90;53.50;;;;;;5054908;28;20127;-77
2021/06/20 10:19:52;;;;;;;0.17;0.13;;;31.10;54.10;;;;;;5073478;28;20028;-77
2021/06/20 10:22:18;;;;;;;0.10;0.10;;;31.00;54.30;;;;;;5055560;28;20029;-77
2021/06/20 10:24:56;;;;;;;0.28;0.20;;;31.20;53.30;;;;;;5055667;28;20025;-77
2021/06/20 10:27:41;;;;;;;0.00;0.00;;;31.00;53.70;;;;;;5038614;28;20085;-77
2021/06/20 10:30:21;;;;;;;1.05;0.70;;;30.80;54.20;;;;;;5073255;28;20836;-76
2021/06/20 10:32:49;;;;;;;0.10;0.10;;;30.60;54.60;;;;;;5073322;28;20028;-77
2021/06/20 10:35:22;;;;;;;4.75;0.63;;;30.60;54.80;;;;;;5055389;28;20078;-77
2021/06/20 10:37:50;;;;;;;0.60;0.60;;;30.90;54.40;;;;;;5073276;28;20084;-78
2021/06/20 10:40:35;;;;;;;0.08;0.05;;;31.20;54.70;;;;;;5055120;28;20387;-77
2021/06/20 10:43:17;;;;;;;0.10;0.10;;;31.50;53.20;;;;;;5072925;28;20074;-77
2021/06/20 10:45:43;;;;;;;0.00;0.00;;;31.70;52.70;;;;;;5073016;28;20024;-77
2021/06/20 10:48:20;;;;;;;1.13;0.40;;;31.70;53.20;;;;;;5072750;28;20484;-77
2021/06/20 10:50:48;;;;;;;4.57;4.20;;;31.40;53.40;;;;;;5055013;28;20021;-78
2021/06/20 10:53:14;;;;;;;5.43;5.00;;;31.50;53.10;;;;;;5054890;28;20028;-77
2021/06/20 10:55:59;;;;;;;0.10;0.10;;;31.70;52.70;;;;;;5038194;28;20082;-77
2021/06/20 10:58:30;;;;;;;6.93;0.95;;;31.50;53.30;;;;;;5038172;28;20439;-77
2021/06/20 11:01:07;;;;;;;3.40;0.93;;;31.50;52.40;;;;;;5037931;28;20477;-78
2021/06/20 11:03:33;;;;;;;0.10;0.10;;;31.40;52.70;;;;;;5072524;28;20024;-77
2021/06/20 11:06:15;;;;;;;4.65;1.60;;;31.30;53.30;;;;;;5072582;28;20017;-77
2021/06/20 11:08:57;;;;;;;0.65;0.22;;;30.80;53.70;;;;;;5072525;28;20468;-77
2021/06/20 11:11:35;;;;;;;1.67;0.25;;;30.80;53.70;;;;;;5054440;28;20031;-77
2021/06/20 11:14:06;;;;;;;6.05;2.40;;;30.70;53.50;;;;;;5054827;28;20028;-77
2021/06/20 11:16:43;;;;;;;0.47;0.10;;;30.60;53.60;;;;;;5054604;28;20480;-77
2021/06/20 11:19:11;;;;;;;2.72;0.85;;;30.10;54.00;;;;;;5054294;28;20047;-76
2021/06/20 11:21:38;;;;;;;0.03;0.03;;;29.90;54.80;;;;;;5054217;28;20025;-77
2021/06/20 11:24:05;;;;;;;1.05;0.25;;;30.10;55.30;;;;;;5054279;28;20028;-76
2021/06/20 11:26:30;;;;;;;11.20;4.07;;;30.10;54.80;;;;;;5071856;28;20035;-77
2021/06/20 11:29:00;;;;;;;0.70;0.30;;;30.30;54.30;;;;;;5071905;28;20017;-76
2021/06/20 11:31:26;;;;;;;0.00;0.00;;;30.70;53.60;;;;;;5071876;28;20052;-77
2021/06/20 11:33:55;;;;;;;3.25;0.73;;;30.90;52.80;;;;;;5054037;28;20543;-76
2021/06/20 11:36:22;;;;;;;0.75;0.35;;;31.00;52.20;;;;;;5053996;28;20111;-77
2021/06/20 11:38:48;;;;;;;0.40;0.40;;;30.90;52.10;;;;;;5071861;28;20506;-77
2021/06/20 11:41:21;;;;;;;3.13;0.52;;;30.90;52.70;;;;;;5053761;28;20111;-77
2021/06/20 11:43:57;;;;;;;0.60;0.47;;;30.60;53.80;;;;;;5054066;28;20342;-77
2021/06/20 11:46:25;;;;;;;0.08;0.08;;;30.40;53.80;;;;;;5071692;28;20101;-77
2021/06/20 11:48:53;;;;;;;1.50;1.35;;;30.40;54.70;;;;;;5071867;28;20017;-77
2021/06/20 11:51:35;;;;;;;0.17;0.17;;;30.40;53.90;;;;;;5053640;28;20108;-77
2021/06/20 11:54:22;;;;;;;0.75;0.75;;;30.60;53.20;;;;;;5053905;28;20050;-77
2021/06/20 11:56:55;;;;;;;0.00;0.00;;;30.70;53.30;;;;;;5053921;28;20348;-77
2021/06/20 11:59:47;;;;;;;27.45;2.38;;;30.60;53.60;;;;;;5071676;28;20107;-77
2021/06/20 12:02:13;;;;;;;1.83;0.60;;;29.90;54.20;;;;;;5050011;28;20040;-78
2021/06/20 12:04:45;;;;;;;0.10;0.10;;;29.90;54.40;;;;;;5053863;28;20027;-78
2021/06/20 12:07:11;;;;;;;;;;;29.90;53.60;;;;;;5072235;28;20051;-77
2021/06/20 12:09:37;;;;;;;0.77;0.38;;;29.80;53.00;;;;;;5053681;28;19904;-76
2021/06/20 12:12:10;;;;;;;0.00;0.00;;;29.70;53.60;;;;;;5053896;28;20052;-77
2021/06/20 12:14:36;;;;;;;3.10;1.75;;;29.70;54.10;;;;;;5053780;28;20021;-77
2021/06/20 12:17:03;;;;;;;10.00;2.17;;;29.60;54.40;;;;;;5037171;28;20020;-77
2021/06/20 12:19:34;;;;;;;0.10;0.10;;;29.40;54.40;;;;;;5071410;28;20028;-77
2021/06/20 12:22:08;;;;;;;0.00;0.00;;;29.40;54.70;;;;;;5053681;28;20048;-77
2021/06/20 12:24:55;;;;;;;5.47;1.27;;;29.40;55.10;;;;;;5053434;28;20028;-77
2021/06/20 12:27:41;;;;;;;0.00;0.00;;;29.20;54.00;;;;;;5053198;28;20028;-77
2021/06/20 12:30:15;;;;;;;2.85;0.40;;;28.90;54.90;;;;;;5052905;28;20071;-76
2021/06/20 12:32:40;;;;;;;0.70;0.70;;;28.80;54.70;;;;;;5036908;28;20029;-77
2021/06/20 12:35:07;;;;;;;0.20;0.20;;;28.70;55.00;;;;;;5071653;28;20111;-77
2021/06/20 12:37:41;;;;;;;1.30;1.20;;;28.60;55.80;;;;;;5071657;28;20024;-77
2021/06/20 12:40:16;;;;;;;0.03;0.03;;;28.50;56.20;;;;;;5056403;28;20077;-77
2021/06/20 12:42:53;;;;;;;19.17;6.13;;;28.40;56.80;;;;;;5075252;28;20146;-77
2021/06/20 12:45:23;;;;;;;1.02;1.00;;;28.70;56.50;;;;;;5057368;28;20042;-77
2021/06/20 12:47:50;;;;;;;0.05;0.05;;;28.80;56.20;;;;;;5057098;28;20020;-76
2021/06/20 12:50:28;;;;;;;2.33;2.20;;;28.90;56.60;;;;;;5075156;28;20024;-77
2021/06/20 12:52:54;;;;;;;0.08;0.08;;;28.90;56.30;;;;;;5075328;28;20460;-76